Time;durP1;ratioP1;P1;durP2;ratioP2;P2;SDS_P1;SDS_P2;PMS_P1;PMS_P2;Temp;Humidity;BMP_temperature;BMP_pressure;BME280_temperature;BME280_humidity;BME280_pressure;Samples;Min_cycle;Max_cycle;Signal;HPM_P1;HPM_P2
2021/05/03 00:02:14;;;;;;;;;;;4.40;87.10;;;;;;4990152;28;20416;-50
2021/05/03 00:04:40;;;;;;;;;;;4.50;87.20;;;;;;4990166;28;19948;-50
2021/05/03 00:07:06;;;;;;;;;;;4.50;85.60;;;;;;4994084;28;20144;-49
2021/05/03 00:09:31;;;;;;;;;;;4.50;86.00;;;;;;5006381;28;19990;-49
2021/05/03 00:11:57;;;;;;;;;;;4.50;87.30;;;;;;5044091;28;19925;-49
2021/05/03 00:14:24;;;;;;;;;;;4.60;86.50;;;;;;4991932;28;19928;-50
2021/05/03 00:16:50;;;;;;;;;;;4.60;85.70;;;;;;4983978;28;20348;-49
2021/05/03 00:19:16;;;;;;;;;;;4.60;86.50;;;;;;4995326;28;19922;-49
2021/05/03 00:21:42;;;;;;;;;;;4.50;86.30;;;;;;4986483;28;19918;-51
2021/05/03 00:24:08;;;;;;;;;;;4.80;86.60;;;;;;4990015;28;20024;-48
2021/05/03 00:26:34;;;;;;;;;;;4.60;87.30;;;;;;4992539;28;19970;-50
2021/05/03 00:28:59;;;;;;;;;;;4.60;86.80;;;;;;4988347;28;19922;-50
2021/05/03 00:31:26;;;;;;;;;;;4.60;84.60;;;;;;5003590;28;19918;-50
2021/05/03 00:33:52;;;;;;;;;;;4.70;84.90;;;;;;5006064;28;19917;-49
2021/05/03 00:36:18;;;;;;;;;;;4.70;85.20;;;;;;5005505;28;19928;-53
2021/05/03 00:38:43;;;;;;;;;;;4.70;86.40;;;;;;4991195;28;19921;-52
2021/05/03 00:41:09;;;;;;;;;;;4.80;87.50;;;;;;5024319;28;19918;-52
2021/05/03 00:43:35;;;;;;;;;;;4.80;86.50;;;;;;4991684;28;19928;-53
2021/05/03 00:46:01;;;;;;;;;;;4.80;86.20;;;;;;4985135;28;19921;-50
2021/05/03 00:48:28;;;;;;;;;;;4.80;86.00;;;;;;4991921;28;19918;-50
2021/05/03 00:50:53;;;;;;;;;;;4.80;86.10;;;;;;4991485;28;19928;-50
2021/05/03 00:53:19;;;;;;;;;;;4.80;87.30;;;;;;4977490;28;20251;-50
2021/05/03 00:55:46;;;;;;;;;;;4.80;86.80;;;;;;5011000;28;19920;-49
2021/05/03 00:58:11;;;;;;;;;;;4.80;86.80;;;;;;5019428;28;19921;-50
2021/05/03 01:00:37;;;;;;;;;;;4.80;86.70;;;;;;5014573;28;19950;-49
2021/05/03 01:03:05;;;;;;;;;;;4.80;86.50;;;;;;5041631;28;20163;-49
2021/05/03 01:05:32;;;;;;;;;;;4.80;86.70;;;;;;4984497;28;19917;-49
2021/05/03 01:07:59;;;;;;;;;;;4.80;87.00;;;;;;5017035;28;19918;-50
2021/05/03 01:10:25;;;;;;;;;;;4.80;86.50;;;;;;4992327;28;19925;-49
2021/05/03 01:12:52;;;;;;;;;;;4.80;87.60;;;;;;4982996;28;19918;-49
2021/05/03 01:15:23;;;;;;;;;;;4.80;87.50;;;;;;4983155;28;19929;-49
2021/05/03 01:18:07;;;;;;;;;;;4.80;87.40;;;;;;5017115;28;19925;-49
2021/05/03 01:20:34;;;;;;;;;;;4.80;86.60;;;;;;5020355;28;19928;-49
2021/05/03 01:22:59;;;;;;;;;;;4.90;88.00;;;;;;4991381;28;20472;-49
2021/05/03 01:25:30;;;;;;;;;;;4.90;87.90;;;;;;4992576;28;20009;-49
2021/05/03 01:28:00;;;;;;;;;;;5.00;87.70;;;;;;4990985;28;19922;-51
2021/05/03 01:30:30;;;;;;;;;;;4.90;87.90;;;;;;4992095;28;19975;-52
2021/05/03 01:32:58;;;;;;;;;;;5.00;87.50;;;;;;4991571;28;19925;-49
2021/05/03 01:35:24;;;;;;;;;;;5.00;88.70;;;;;;4992409;28;20069;-49
2021/05/03 01:37:51;;;;;;;;;;;5.00;89.00;;;;;;4990337;28;20112;-49
2021/05/03 01:40:18;;;;;;;;;;;5.00;88.70;;;;;;4983897;28;20352;-52
2021/05/03 01:42:43;;;;;;;;;;;5.00;89.00;;;;;;4990174;28;19917;-50
2021/05/03 01:45:10;;;;;;;;;;;5.10;87.30;;;;;;4992343;28;19921;-49
2021/05/03 01:47:36;;;;;;;;;;;5.00;87.10;;;;;;4976514;28;19917;-49
2021/05/03 01:50:02;;;;;;;;;;;5.00;87.80;;;;;;4990975;28;19924;-51
2021/05/03 01:52:28;;;;;;;;;;;5.00;87.40;;;;;;4967464;28;19918;-49
2021/05/03 01:54:55;;;;;;;;;;;5.00;87.90;;;;;;4990678;28;19948;-50
2021/05/03 01:57:21;;;;;;;;;;;5.00;85.60;;;;;;4989247;28;19936;-51
2021/05/03 01:59:51;;;;;;;;;;;5.00;87.00;;;;;;4990745;28;19926;-49
2021/05/03 02:02:17;;;;;;;;;;;5.00;86.20;;;;;;4983233;28;19965;-49
2021/05/03 02:04:43;;;;;;;;;;;5.00;86.30;;;;;;4990989;28;19918;-51
2021/05/03 02:07:08;;;;;;;;;;;5.10;87.20;;;;;;4990401;28;19929;-49
2021/05/03 02:09:34;;;;;;;;;;;5.10;87.80;;;;;;4982968;28;19917;-50
2021/05/03 02:11:59;;;;;;;;;;;5.00;88.90;;;;;;4991025;28;19940;-49
2021/05/03 02:14:25;;;;;;;;;;;5.00;87.80;;;;;;4990281;28;19922;-49
2021/05/03 02:16:51;;;;;;;;;;;5.00;87.80;;;;;;4987902;28;19926;-49
2021/05/03 02:19:17;;;;;;;;;;;5.00;88.10;;;;;;4964894;28;19922;-49
2021/05/03 02:21:43;;;;;;;;;;;5.00;87.90;;;;;;4987033;28;19956;-51
2021/05/03 02:24:09;;;;;;;;;;;5.00;89.20;;;;;;4990451;28;19921;-52
2021/05/03 02:26:34;;;;;;;;;;;5.10;88.70;;;;;;4988199;28;20021;-50
2021/05/03 02:29:00;;;;;;;;;;;5.10;88.40;;;;;;4990169;28;20001;-54
2021/05/03 02:31:25;;;;;;;;;;;5.10;88.80;;;;;;4990661;28;19922;-49
2021/05/03 02:33:51;;;;;;;;;;;5.10;89.30;;;;;;5038563;28;20376;-49
2021/05/03 02:36:18;;;;;;;;;;;5.10;87.20;;;;;;4996976;28;19917;-50
2021/05/03 02:38:44;;;;;;;;;;;5.10;87.70;;;;;;4988735;28;20344;-48
2021/05/03 02:41:10;;;;;;;;;;;5.20;87.60;;;;;;5032616;28;19918;-49
2021/05/03 02:43:36;;;;;;;;;;;5.20;87.70;;;;;;5030941;28;19929;-49
2021/05/03 02:46:01;;;;;;;;;;;5.20;88.60;;;;;;4983254;28;19996;-49
2021/05/03 02:48:27;;;;;;;;;;;5.20;89.30;;;;;;4972239;28;20384;-53
2021/05/03 02:50:53;;;;;;;;;;;5.20;88.70;;;;;;4990349;28;19967;-50
2021/05/03 02:53:19;;;;;;;;;;;5.30;89.40;;;;;;4988576;28;19928;-50
2021/05/03 02:55:44;;;;;;;;;;;5.20;89.20;;;;;;4990028;28;19947;-49
2021/05/03 02:58:10;;;;;;;;;;;5.30;88.30;;;;;;5046876;28;20418;-50
2021/05/03 03:00:36;;;;;;;;;;;5.30;90.10;;;;;;5023641;28;19978;-50
2021/05/03 03:03:02;;;;;;;;;;;5.30;90.30;;;;;;5013422;28;19932;-50
2021/05/03 03:05:28;;;;;;;;;;;5.30;89.20;;;;;;4990237;28;19929;-50
2021/05/03 03:07:57;;;;;;;;;;;5.40;90.10;;;;;;4988518;28;20374;-50
2021/05/03 03:10:22;;;;;;;;;;;5.40;90.20;;;;;;4989787;28;19917;-49
2021/05/03 03:12:48;;;;;;;;;;;5.40;89.80;;;;;;4990238;28;20009;-51
2021/05/03 03:15:16;;;;;;;;;;;5.40;90.00;;;;;;4989366;28;20377;-52
2021/05/03 03:17:47;;;;;;;;;;;5.40;90.60;;;;;;4988085;28;19925;-49
2021/05/03 03:20:13;;;;;;;;;;;5.40;90.20;;;;;;4990041;28;20301;-50
2021/05/03 03:22:39;;;;;;;;;;;5.40;90.10;;;;;;4989631;28;19928;-49
2021/05/03 03:25:05;;;;;;;;;;;5.50;90.30;;;;;;4990015;28;19993;-49
2021/05/03 03:27:31;;;;;;;;;;;5.50;90.60;;;;;;4989190;28;19918;-50
2021/05/03 03:29:57;;;;;;;;;;;5.50;90.50;;;;;;4990066;28;20315;-54
2021/05/03 03:32:23;;;;;;;;;;;5.50;90.40;;;;;;4989765;28;19992;-50
2021/05/03 03:34:49;;;;;;;;;;;5.50;90.60;;;;;;4975108;28;20420;-50
2021/05/03 03:37:15;;;;;;;;;;;5.60;90.70;;;;;;4988022;28;19918;-52
2021/05/03 03:39:41;;;;;;;;;;;5.50;90.50;;;;;;5020390;28;19917;-53
2021/05/03 03:42:07;;;;;;;;;;;5.50;90.60;;;;;;5007070;28;19929;-50
2021/05/03 03:44:32;;;;;;;;;;;5.40;90.80;;;;;;4974263;28;19918;-51
2021/05/03 03:46:58;;;;;;;;;;;5.50;90.70;;;;;;4982942;28;19921;-51
2021/05/03 03:49:24;;;;;;;;;;;5.40;90.60;;;;;;4989259;28;19925;-51
2021/05/03 03:51:50;;;;;;;;;;;5.40;90.60;;;;;;4983518;28;19933;-50
2021/05/03 03:54:17;;;;;;;;;;;5.40;90.60;;;;;;4970071;28;19922;-50
2021/05/03 03:56:43;;;;;;;;;;;5.50;90.90;;;;;;4975837;28;19979;-51
2021/05/03 03:59:11;;;;;;;;;;;5.50;90.80;;;;;;4985472;28;20303;-50
2021/05/03 04:01:37;;;;;;;;;;;5.50;90.70;;;;;;4981948;28;20378;-50
2021/05/03 04:04:10;;;;;;;;;;;5.60;90.80;;;;;;4989073;28;19918;-51
2021/05/03 04:09:25;;;;;;;;;;;5.60;90.90;;;;;;5020109;28;20292;-50
2021/05/03 04:22:42;;;;;;;;;;;5.50;91.10;;;;;;4975512;28;20305;-50
2021/05/03 04:27:43;;;;;;;;;;;5.60;91.00;;;;;;4985169;28;20016;-51
2021/05/03 04:30:11;;;;;;;;;;;5.60;91.00;;;;;;4977418;28;19918;-49
2021/05/03 04:32:37;;;;;;;;;;;5.60;91.10;;;;;;4990153;28;20433;-49
2021/05/03 04:35:03;;;;;;;;;;;5.60;91.00;;;;;;5010787;28;19966;-51
2021/05/03 04:37:29;;;;;;;;;;;5.60;91.00;;;;;;4991350;28;19922;-52
2021/05/03 04:39:54;;;;;;;;;;;5.60;90.90;;;;;;4989353;28;19926;-50
2021/05/03 04:42:20;;;;;;;;;;;5.60;91.00;;;;;;4974782;28;20405;-53
2021/05/03 04:44:46;;;;;;;;;;;5.70;90.80;;;;;;4989023;28;19924;-52
2021/05/03 04:47:11;;;;;;;;;;;5.70;90.70;;;;;;4987831;28;19933;-52
2021/05/03 04:49:37;;;;;;;;;;;5.70;90.70;;;;;;4991858;28;20386;-49
2021/05/03 04:52:02;;;;;;;;;;;5.70;90.60;;;;;;4992084;28;19917;-51
2021/05/03 04:54:28;;;;;;;;;;;5.70;90.70;;;;;;4991197;28;19921;-52
2021/05/03 04:56:54;;;;;;;;;;;5.60;90.70;;;;;;4991529;28;19921;-54
2021/05/03 04:59:19;;;;;;;;;;;5.60;90.60;;;;;;4989978;28;20374;-52
2021/05/03 05:01:45;;;;;;;;;;;5.60;90.60;;;;;;4985046;28;19922;-51
2021/05/03 05:04:10;;;;;;;;;;;5.70;90.70;;;;;;4972641;28;19983;-52
2021/05/03 05:06:37;;;;;;;;;;;5.70;90.50;;;;;;4991465;28;19988;-51
2021/05/03 05:09:04;;;;;;;;;;;5.70;90.60;;;;;;4973949;28;19929;-53
2021/05/03 05:11:33;;;;;;;;;;;5.70;90.50;;;;;;4991690;28;20278;-54
2021/05/03 05:13:59;;;;;;;;;;;5.70;90.50;;;;;;4991497;28;19921;-53
2021/05/03 05:16:25;;;;;;;;;;;5.70;90.60;;;;;;4991629;28;19925;-52
2021/05/03 05:18:51;;;;;;;;;;;5.70;90.50;;;;;;4976042;28;19922;-50
2021/05/03 05:21:17;;;;;;;;;;;5.80;90.60;;;;;;4972405;28;19922;-50
2021/05/03 05:23:43;;;;;;;;;;;5.80;90.40;;;;;;4985015;28;19939;-52
2021/05/03 05:26:10;;;;;;;;;;;5.80;90.30;;;;;;5050089;28;19917;-50
2021/05/03 05:28:36;;;;;;;;;;;5.80;90.50;;;;;;4990034;28;19917;-52
2021/05/03 05:31:03;;;;;;;;;;;5.80;90.50;;;;;;5050644;28;19947;-50
2021/05/03 05:33:30;;;;;;;;;;;5.90;90.40;;;;;;4992202;28;20375;-47
2021/05/03 05:35:56;;;;;;;;;;;5.90;90.40;;;;;;4981395;28;20298;-49
2021/05/03 05:38:22;;;;;;;;;;;5.90;90.40;;;;;;5050071;28;19923;-48
2021/05/03 05:40:50;;;;;;;;;;;6.00;90.50;;;;;;4994209;28;19922;-49
2021/05/03 05:43:16;;;;;;;;;;;6.00;90.40;;;;;;4985136;28;19925;-49
2021/05/03 05:45:44;;;;;;;;;;;6.10;90.30;;;;;;5026233;28;20286;-51
2021/05/03 05:48:12;;;;;;;;;;;6.10;90.20;;;;;;4991879;28;20008;-50
2021/05/03 05:50:38;;;;;;;;;;;6.10;90.10;;;;;;4994306;28;19986;-51
2021/05/03 05:53:04;;;;;;;;;;;6.10;90.10;;;;;;4984191;28;20037;-51
2021/05/03 05:55:30;;;;;;;;;;;6.10;90.10;;;;;;4992464;28;19924;-48
2021/05/03 05:57:55;;;;;;;;;;;6.10;90.10;;;;;;4992725;28;19918;-52
2021/05/03 06:00:21;;;;;;;;;;;6.10;90.20;;;;;;4993657;28;19937;-47
2021/05/03 06:02:47;;;;;;;;;;;6.10;90.10;;;;;;4986798;28;19918;-48
2021/05/03 06:05:14;;;;;;;;;;;6.10;90.10;;;;;;4977075;28;20370;-47
2021/05/03 06:07:40;;;;;;;;;;;6.10;90.00;;;;;;4968078;28;20358;-49
2021/05/03 06:10:07;;;;;;;;;;;6.10;90.00;;;;;;4978757;28;20294;-48
2021/05/03 06:12:32;;;;;;;;;;;6.10;90.00;;;;;;5046472;28;19918;-49
2021/05/03 06:14:58;;;;;;;;;;;6.10;90.40;;;;;;4976712;28;20113;-49
2021/05/03 06:17:24;;;;;;;;;;;6.10;90.20;;;;;;4991880;28;19921;-49
2021/05/03 06:19:49;;;;;;;;;;;6.10;90.10;;;;;;4992829;28;19962;-50
2021/05/03 06:22:15;;;;;;;;;;;6.10;90.20;;;;;;5047042;28;19926;-52
2021/05/03 06:24:41;;;;;;;;;;;6.20;90.00;;;;;;4981477;28;19975;-49
2021/05/03 06:27:07;;;;;;;;;;;6.30;90.10;;;;;;5045814;28;19923;-51
2021/05/03 06:29:32;;;;;;;;;;;6.40;90.20;;;;;;5039253;28;20374;-50
2021/05/03 06:31:59;;;;;;;;;;;6.40;89.90;;;;;;5002799;28;19922;-52
2021/05/03 06:34:28;;;;;;;;;;;6.50;89.70;;;;;;5001957;28;19922;-53
2021/05/03 06:36:54;;;;;;;;;;;6.50;89.50;;;;;;4984900;28;19925;-53
2021/05/03 06:39:19;;;;;;;;;;;6.60;89.70;;;;;;4986838;28;20374;-52
2021/05/03 06:41:45;;;;;;;;;;;6.60;89.80;;;;;;4981105;28;19928;-53
2021/05/03 06:44:11;;;;;;;;;;;6.60;89.50;;;;;;4984422;28;19917;-53
2021/05/03 06:46:37;;;;;;;;;;;6.60;89.30;;;;;;4989009;28;19918;-51
2021/05/03 06:49:03;;;;;;;;;;;6.60;89.50;;;;;;5042636;28;19956;-53
2021/05/03 06:51:29;;;;;;;;;;;6.70;89.10;;;;;;4988310;28;19953;-52
2021/05/03 06:53:55;;;;;;;;;;;6.80;89.00;;;;;;5034915;28;20368;-51
2021/05/03 06:56:20;;;;;;;;;;;6.50;88.80;;;;;;4981649;28;19925;-49
2021/05/03 06:58:46;;;;;;;;;;;6.90;89.10;;;;;;4988967;28;19974;-50
2021/05/03 07:01:13;;;;;;;;;;;7.00;88.80;;;;;;4992459;28;20013;-50
2021/05/03 07:03:41;;;;;;;;;;;7.00;88.90;;;;;;4989860;28;20544;-50
2021/05/03 07:06:08;;;;;;;;;;;7.10;88.90;;;;;;4992225;28;20432;-49
2021/05/03 07:08:34;;;;;;;;;;;7.10;88.00;;;;;;4989577;28;19949;-51
2021/05/03 07:11:04;;;;;;;;;;;7.20;87.90;;;;;;4988704;28;19921;-50
2021/05/03 07:13:30;;;;;;;;;;;7.30;87.80;;;;;;4973241;28;19917;-50
2021/05/03 07:15:56;;;;;;;;;;;7.40;87.20;;;;;;4980883;28;19940;-52
2021/05/03 07:18:21;;;;;;;;;;;7.50;87.30;;;;;;4974688;28;19961;-51
2021/05/03 07:20:47;;;;;;;;;;;7.50;87.40;;;;;;4989470;28;20002;-51
2021/05/03 07:23:13;;;;;;;;;;;7.60;86.50;;;;;;4989313;28;19925;-51
2021/05/03 07:25:39;;;;;;;;;;;7.60;86.80;;;;;;4989289;28;19929;-52
2021/05/03 07:28:05;;;;;;;;;;;7.70;86.90;;;;;;5045885;28;20434;-51
2021/05/03 07:30:31;;;;;;;;;;;7.70;86.70;;;;;;4989682;28;19918;-50
2021/05/03 07:32:57;;;;;;;;;;;7.70;87.10;;;;;;4988090;28;20448;-50
2021/05/03 07:35:23;;;;;;;;;;;7.80;86.90;;;;;;4988850;28;20036;-50
2021/05/03 07:37:49;;;;;;;;;;;7.80;86.80;;;;;;4984588;28;20341;-50
2021/05/03 07:40:15;;;;;;;;;;;7.80;87.20;;;;;;4987017;28;20290;-49
2021/05/03 07:42:41;;;;;;;;;;;7.90;87.60;;;;;;4976431;28;19985;-49
2021/05/03 07:45:06;;;;;;;;;;;7.80;87.60;;;;;;4988963;28;20325;-51
2021/05/03 07:47:32;;;;;;;;;;;7.80;88.90;;;;;;4961031;28;19963;-49
2021/05/03 07:49:59;;;;;;;;;;;7.80;90.10;;;;;;4985943;28;19964;-51
2021/05/03 07:52:25;;;;;;;;;;;7.80;90.10;;;;;;4987982;28;20293;-53
2021/05/03 07:54:51;;;;;;;;;;;7.80;89.50;;;;;;4973956;28;20279;-52
2021/05/03 07:57:16;;;;;;;;;;;7.80;90.00;;;;;;4974152;28;19917;-53
2021/05/03 07:59:42;;;;;;;;;;;7.90;89.70;;;;;;4989048;28;19956;-51
2021/05/03 08:02:08;;;;;;;;;;;7.90;90.10;;;;;;4988332;28;19956;-53
2021/05/03 08:04:34;;;;;;;;;;;7.90;90.20;;;;;;4988088;28;19918;-51
2021/05/03 08:07:00;;;;;;;;;;;8.00;90.00;;;;;;4988538;28;19921;-53
2021/05/03 08:09:26;;;;;;;;;;;8.10;89.90;;;;;;4971375;28;19917;-53
2021/05/03 08:11:53;;;;;;;;;;;8.20;89.80;;;;;;4988357;28;19918;-53
2021/05/03 08:14:20;;;;;;;;;;;8.30;90.10;;;;;;4987427;28;19967;-52
2021/05/03 08:16:48;;;;;;;;;;;8.30;89.20;;;;;;4987786;28;19918;-50
2021/05/03 08:19:14;;;;;;;;;;;8.40;89.40;;;;;;4990896;28;19961;-49
2021/05/03 08:21:40;;;;;;;;;;;8.60;89.60;;;;;;4984916;28;19972;-49
2021/05/03 08:24:06;;;;;;;;;;;8.80;88.90;;;;;;4991979;28;20343;-49
2021/05/03 08:26:32;;;;;;;;;;;8.90;87.50;;;;;;4994287;28;19925;-52
2021/05/03 08:28:58;;;;;;;;;;;9.10;88.40;;;;;;4985656;28;20020;-50
2021/05/03 08:31:24;;;;;;;;;;;9.10;88.00;;;;;;4985167;28;20033;-49
2021/05/03 08:33:50;;;;;;;;;;;9.20;87.80;;;;;;4992686;28;19921;-49
2021/05/03 08:36:15;;;;;;;;;;;9.30;88.10;;;;;;4991241;28;19918;-53
2021/05/03 08:38:41;;;;;;;;;;;9.40;86.20;;;;;;4992863;28;20020;-50
2021/05/03 08:41:06;;;;;;;;;;;9.40;86.50;;;;;;4983683;28;19970;-49
2021/05/03 08:43:36;;;;;;;;;;;9.40;86.00;;;;;;4978507;28;19971;-51
2021/05/03 08:46:02;;;;;;;;;;;9.50;86.80;;;;;;4990558;28;19948;-50
2021/05/03 08:49:16;;;;;;;;;;;9.60;86.20;;;;;;4993399;28;19918;-49
2021/05/03 08:51:35;;;;;;;;;;;9.80;85.70;;;;;;4988317;28;19963;-51
2021/05/03 08:54:44;;;;;;;;;;;10.00;85.80;;;;;;4993763;28;20005;-52
2021/05/03 08:56:50;;;;;;;;;;;10.10;84.30;;;;;;5001408;28;20435;-49
2021/05/03 08:59:16;;;;;;;;;;;10.20;83.80;;;;;;4990059;28;19957;-52
2021/05/03 09:01:48;;;;;;;;;;;10.30;84.10;;;;;;4991449;28;19925;-51
2021/05/03 09:04:14;;;;;;;;;;;10.40;83.20;;;;;;4988716;28;19932;-52
2021/05/03 09:06:55;;;;;;;;;;;10.50;82.90;;;;;;4986792;28;19918;-49
2021/05/03 09:09:29;;;;;;;;;;;10.60;82.90;;;;;;4992920;28;19921;-50
2021/05/03 09:11:58;;;;;;;;;;;10.70;81.80;;;;;;4983710;28;19971;-52
2021/05/03 09:14:24;;;;;;;;;;;10.70;80.70;;;;;;4982252;28;20419;-53
2021/05/03 09:16:51;;;;;;;;;;;10.70;79.70;;;;;;5047564;28;19920;-53
2021/05/03 09:19:18;;;;;;;;;;;10.60;81.30;;;;;;4990043;28;19928;-51
2021/05/03 09:21:44;;;;;;;;;;;10.70;79.90;;;;;;4992141;28;19918;-53
2021/05/03 09:24:13;;;;;;;;;;;10.60;79.70;;;;;;4986704;28;19922;-53
2021/05/03 09:26:42;;;;;;;;;;;10.60;79.70;;;;;;4970738;28;20361;-53
2021/05/03 09:29:43;;;;;;;;;;;10.60;79.90;;;;;;4975400;28;19918;-52
2021/05/03 09:32:19;;;;;;;;;;;10.70;80.60;;;;;;5024179;28;19926;-53
2021/05/03 09:34:46;;;;;;;;;;;10.70;78.90;;;;;;4971025;28;19918;-54
2021/05/03 09:37:17;;;;;;;;;;;10.80;78.90;;;;;;4988941;28;19921;-52
2021/05/03 09:39:44;;;;;;;;;;;10.90;78.40;;;;;;5015410;28;19917;-51
2021/05/03 09:42:10;;;;;;;;;;;11.00;79.10;;;;;;5022675;28;20381;-53
2021/05/03 09:44:36;;;;;;;;;;;11.10;77.90;;;;;;5016567;28;19917;-51
2021/05/03 09:47:02;;;;;;;;;;;11.30;78.40;;;;;;4978996;28;19926;-51
2021/05/03 09:49:28;;;;;;;;;;;11.40;78.40;;;;;;4975862;28;20007;-53
2021/05/03 09:51:56;;;;;;;;;;;11.60;77.40;;;;;;4991086;28;19936;-51
2021/05/03 09:54:28;;;;;;;;;;;11.70;76.70;;;;;;4990987;28;19926;-50
2021/05/03 09:57:03;;;;;;;;;;;11.80;76.40;;;;;;4987584;28;20391;-50
2021/05/03 09:59:43;;;;;;;;;;;12.00;76.40;;;;;;4983419;28;19987;-53
2021/05/03 10:02:10;;;;;;;;;;;12.20;74.80;;;;;;4992606;28;19925;-53
2021/05/03 10:04:37;;;;;;;;;;;12.20;74.90;;;;;;4993204;28;19924;-52
2021/05/03 10:07:04;;;;;;;;;;;12.20;73.70;;;;;;4988714;28;20388;-50
2021/05/03 10:09:31;;;;;;;;;;;12.20;74.80;;;;;;4990735;28;19917;-50
2021/05/03 10:11:56;;;;;;;;;;;12.20;74.20;;;;;;4989930;28;19918;-51
2021/05/03 10:14:22;;;;;;;;;;;12.20;73.80;;;;;;4990209;28;20293;-50
2021/05/03 10:16:49;;;;;;;;;;;12.00;73.20;;;;;;4989700;28;19922;-51
2021/05/03 10:19:17;;;;;;;;;;;11.90;74.10;;;;;;4989949;28;19933;-50
2021/05/03 10:21:43;;;;;;;;;;;11.80;72.30;;;;;;4989826;28;19922;-53
2021/05/03 10:24:09;;;;;;;;;;;11.70;73.40;;;;;;4990283;28;20400;-50
2021/05/03 10:26:37;;;;;;;;;;;11.60;73.60;;;;;;4988787;28;19925;-50
2021/05/03 10:29:04;;;;;;;;;;;11.50;73.20;;;;;;4976336;28;20279;-50
2021/05/03 10:31:49;;;;;;;;;;;11.40;75.10;;;;;;4981627;28;19925;-53
2021/05/03 10:34:33;;;;;;;;;;;11.30;73.90;;;;;;4986285;28;19917;-52
2021/05/03 10:36:59;;;;;;;;;;;11.40;75.10;;;;;;4977746;28;19918;-53
2021/05/03 10:39:29;;;;;;;;;;;11.30;74.90;;;;;;5001168;28;19971;-50
2021/05/03 10:42:06;;;;;;;;;;;11.30;75.00;;;;;;4988794;28;19945;-52
2021/05/03 10:44:31;;;;;;;;;;;11.40;75.00;;;;;;4986865;28;19953;-53
2021/05/03 10:47:03;;;;;;;;;;;11.60;75.00;;;;;;4980149;28;19949;-50
2021/05/03 10:49:33;;;;;;;;;;;11.70;73.60;;;;;;4988832;28;19922;-50
2021/05/03 10:52:03;;;;;;;;;;;12.00;74.90;;;;;;4989912;28;19922;-51
2021/05/03 10:57:20;;;;;;;;;;;12.40;74.00;;;;;;4978779;28;19918;-54
2021/05/03 10:59:51;;;;;;;;;;;12.50;72.80;;;;;;5054057;28;20377;-54
2021/05/03 11:02:18;;;;;;;;;;;12.60;72.70;;;;;;4980917;28;19931;-54
2021/05/03 11:05:02;;;;;;;;;;;12.60;71.30;;;;;;4987601;28;19918;-54
2021/05/03 11:07:27;;;;;;;;;;;12.60;70.60;;;;;;4988805;28;19925;-53
2021/05/03 11:09:53;;;;;;;;;;;12.50;69.70;;;;;;4973099;28;19929;-53
2021/05/03 11:12:21;;;;;;;;;;;12.60;71.70;;;;;;4979374;28;19922;-54
2021/05/03 11:15:26;;;;;;;;;;;12.60;71.40;;;;;;4988995;28;20450;-54
2021/05/03 11:18:14;;;;;;;;;;;12.60;69.50;;;;;;5031637;28;19917;-53
2021/05/03 11:20:59;;;;;;;;;;;12.50;66.10;;;;;;5048551;28;20026;-54
2021/05/03 11:23:25;;;;;;;;;;;12.30;66.30;;;;;;4993996;28;19935;-54
2021/05/03 11:25:51;;;;;;;;;;;12.10;68.50;;;;;;4988722;28;19917;-54
2021/05/03 11:28:20;;;;;;;;;;;12.00;71.30;;;;;;4989991;28;20396;-53
2021/05/03 11:30:57;;;;;;;;;;;11.50;72.70;;;;;;4987975;28;20378;-53
2021/05/03 11:33:33;;;;;;;;;;;11.00;74.20;;;;;;4979750;28;19953;-54
2021/05/03 11:36:07;;;;;;;;;;;10.40;74.60;;;;;;4985355;28;19925;-53
2021/05/03 11:38:48;;;;;;;;;;;10.10;75.40;;;;;;5008048;28;19918;-53
2021/05/03 11:46:26;;;;;;;;;;;9.30;81.00;;;;;;4988927;28;19921;-53
2021/05/03 11:48:53;;;;;;;;;;;9.10;82.00;;;;;;4989875;28;19918;-53
2021/05/03 11:51:19;;;;;;;;;;;8.90;82.10;;;;;;4978870;28;19928;-53
2021/05/03 11:53:45;;;;;;;;;;;8.70;81.80;;;;;;4989355;28;19918;-53
2021/05/03 11:56:14;;;;;;;;;;;8.60;83.20;;;;;;4981967;28;19918;-51
2021/05/03 11:58:42;;;;;;;;;;;8.60;78.70;;;;;;5055173;28;19916;-52
2021/05/03 12:01:14;;;;;;;;;;;8.80;77.70;;;;;;5041276;28;19922;-51
2021/05/03 12:03:41;;;;;;;;;;;8.80;81.10;;;;;;4978514;28;19925;-52
2021/05/03 12:06:07;;;;;;;;;;;8.60;80.70;;;;;;4993053;28;19988;-51
2021/05/03 12:08:33;;;;;;;;;;;8.50;82.40;;;;;;5045534;28;20373;-50
2021/05/03 12:11:05;;;;;;;;;;;8.40;83.80;;;;;;4995596;28;19922;-49
2021/05/03 12:13:31;;;;;;;;;;;8.30;85.00;;;;;;4992136;28;20384;-51
2021/05/03 12:15:56;;;;;;;;;;;8.30;84.70;;;;;;4992521;28;19961;-52
2021/05/03 12:18:22;;;;;;;;;;;8.20;85.00;;;;;;4991532;28;20381;-53
2021/05/03 12:20:47;;;;;;;;;;;8.30;84.70;;;;;;4992086;28;19932;-52
2021/05/03 12:23:13;;;;;;;;;;;8.40;84.30;;;;;;4992490;28;19918;-52
2021/05/03 12:25:48;;;;;;;;;;;8.40;84.80;;;;;;4992480;28;20004;-52
2021/05/03 12:28:14;;;;;;;;;;;8.40;85.40;;;;;;4991568;28;19918;-53
2021/05/03 12:30:41;;;;;;;;;;;8.30;86.60;;;;;;4992618;28;19921;-53
2021/05/03 12:33:11;;;;;;;;;;;8.30;86.50;;;;;;4974798;28;19917;-52
2021/05/03 12:35:37;;;;;;;;;;;8.20;87.50;;;;;;5022240;28;19917;-51
2021/05/03 12:38:19;;;;;;;;;;;8.20;87.20;;;;;;5001313;28;19918;-51
2021/05/03 12:40:45;;;;;;;;;;;8.30;89.10;;;;;;5004923;28;20386;-53
2021/05/03 12:43:12;;;;;;;;;;;8.40;89.60;;;;;;4991603;28;19918;-52
2021/05/03 12:45:58;;;;;;;;;;;8.50;89.30;;;;;;4991545;28;20227;-53
2021/05/03 12:53:35;;;;;;;;;;;8.60;87.80;;;;;;4991691;28;19922;-52
2021/05/03 12:56:14;;;;;;;;;;;8.70;87.30;;;;;;4990233;28;19924;-52
2021/05/03 12:58:55;;;;;;;;;;;8.70;86.10;;;;;;4990834;28;20020;-52
2021/05/03 13:01:35;;;;;;;;;;;8.70;86.60;;;;;;4991791;28;19917;-53
2021/05/03 13:06:46;;;;;;;;;;;8.60;87.30;;;;;;4991017;28;19922;-50
2021/05/03 13:12:03;;;;;;;;;;;8.80;88.40;;;;;;4984857;28;19964;-53
2021/05/03 13:29:14;;;;;;;;;;;10.10;87.10;;;;;;4977867;28;19953;-54
2021/05/03 13:31:42;;;;;;;;;;;10.30;86.70;;;;;;4990671;28;19986;-53
2021/05/03 13:34:09;;;;;;;;;;;10.50;86.50;;;;;;4991325;28;19921;-50
2021/05/03 13:36:36;;;;;;;;;;;10.70;85.50;;;;;;4985149;28;19918;-53
2021/05/03 13:39:02;;;;;;;;;;;10.80;85.60;;;;;;4987605;28;19975;-53
2021/05/03 13:41:32;;;;;;;;;;;10.90;84.20;;;;;;4990772;28;20446;-52
2021/05/03 13:43:58;;;;;;;;;;;11.00;85.60;;;;;;4990288;28;19975;-50
2021/05/03 13:46:23;;;;;;;;;;;11.00;84.90;;;;;;4988103;28;19929;-53
2021/05/03 13:48:49;;;;;;;;;;;11.10;84.70;;;;;;4984168;28;19926;-53
2021/05/03 13:51:14;;;;;;;;;;;11.20;84.00;;;;;;4984035;28;19996;-51
2021/05/03 13:53:40;;;;;;;;;;;11.10;82.80;;;;;;4985866;28;19918;-54
2021/05/03 13:56:06;;;;;;;;;;;11.00;82.10;;;;;;4986462;28;19926;-52
2021/05/03 13:58:31;;;;;;;;;;;11.10;81.70;;;;;;4987861;28;20406;-55
2021/05/03 14:00:57;;;;;;;;;;;11.10;83.50;;;;;;4990562;28;19928;-53
2021/05/03 14:04:14;;;;;;;13.77;11.18;;;11.10;81.60;;;;;;5088098;27;20110;-48
2021/05/03 14:06:40;;;;;;;14.45;12.07;;;11.10;80.80;;;;;;5063870;28;20068;-54
2021/05/03 14:09:06;;;;;;;16.00;13.02;;;11.00;80.00;;;;;;5072062;28;20041;-54
2021/05/03 14:11:33;;;;;;;17.65;13.70;;;10.90;80.70;;;;;;5070449;28;20047;-54
2021/05/03 14:13:58;;;;;;;16.38;12.98;;;10.80;81.50;;;;;;5070544;28;20040;-54
2021/05/03 14:16:24;;;;;;;17.42;13.45;;;10.80;81.50;;;;;;5064616;28;20086;-54
2021/05/03 14:18:51;;;;;;;19.88;14.18;;;10.80;81.60;;;;;;5064517;28;20033;-54
2021/05/03 14:21:19;;;;;;;21.70;15.07;;;10.90;82.20;;;;;;5064133;28;20047;-54
2021/05/03 14:23:45;;;;;;;19.85;15.38;;;11.00;83.20;;;;;;5061271;28;20043;-54
2021/05/03 14:26:12;;;;;;;16.95;14.05;;;11.00;82.50;;;;;;5066423;28;20048;-53
2021/05/03 14:29:17;;;;;;;19.70;15.70;;;11.10;82.40;;;;;;5066077;28;20467;-53
2021/05/03 14:31:35;;;;;;;21.50;16.03;;;11.10;81.00;;;;;;5063507;28;20048;-54
2021/05/03 14:34:07;;;;;;;20.67;15.57;;;11.10;81.70;;;;;;5056726;28;20029;-54
2021/05/03 14:36:33;;;;;;;20.13;15.20;;;11.20;81.20;;;;;;5053526;28;20064;-53
2021/05/03 14:38:59;;;;;;;21.25;15.82;;;11.20;81.00;;;;;;5062171;28;20485;-53
2021/05/03 14:41:24;;;;;;;16.15;13.10;;;11.20;80.50;;;;;;5063269;28;20106;-54
2021/05/03 14:43:50;;;;;;;12.18;10.27;;;11.30;78.80;;;;;;5060814;28;20037;-53
2021/05/03 14:46:28;;;;;;;11.88;9.98;;;11.30;77.10;;;;;;5057220;28;20063;-54
2021/05/03 14:56:31;;;;;;;13.57;11.20;;;11.30;76.90;;;;;;5056335;28;20049;-54
2021/05/03 14:58:58;;;;;;;15.27;10.75;;;11.30;75.60;;;;;;5061753;28;20421;-54
2021/05/03 15:01:24;;;;;;;14.98;11.05;;;11.30;76.00;;;;;;5059484;28;20076;-54
2021/05/03 15:03:50;;;;;;;12.75;11.40;;;11.40;75.80;;;;;;5061482;28;20499;-54
2021/05/03 15:06:17;;;;;;;14.63;11.95;;;11.30;75.60;;;;;;5062505;28;20056;-54
2021/05/03 15:08:43;;;;;;;15.50;12.95;;;11.30;75.30;;;;;;5063036;28;20049;-54
2021/05/03 15:11:10;;;;;;;16.20;13.05;;;11.30;75.90;;;;;;5060624;28;20058;-52
2021/05/03 15:13:38;;;;;;;17.05;12.85;;;11.30;76.30;;;;;;5056349;28;20045;-54
2021/05/03 15:19:18;;;;;;;16.88;13.80;;;11.40;75.10;;;;;;5041316;28;20041;-54
2021/05/03 15:21:44;;;;;;;17.10;12.77;;;11.40;75.50;;;;;;5045698;28;20129;-52